Time;durP1;ratioP1;P1;durP2;ratioP2;P2;SDS_P1;SDS_P2;PMS_P1;PMS_P2;Temp;Humidity;BMP_temperature;BMP_pressure;BME280_temperature;BME280_humidity;BME280_pressure;Samples;Min_cycle;Max_cycle;Signal;HPM_P1;HPM_P2
2021/05/17 00:00:52;;;;;;;10.38;5.38;;;;;;;-145.50;100.00;65435.88;4998999;28;20054;-77
2021/05/17 00:03:20;;;;;;;9.93;5.75;;;;;;;-145.50;100.00;65435.88;4992482;28;20137;-77
2021/05/17 00:05:47;;;;;;;8.63;5.47;;;;;;;-145.50;100.00;65435.88;4997372;28;20127;-77
2021/05/17 00:08:14;;;;;;;9.77;5.38;;;;;;;-145.50;100.00;65435.88;5006221;28;20076;-75
2021/05/17 00:10:41;;;;;;;11.32;5.45;;;;;;;-145.50;100.00;65435.88;4992291;28;20058;-76
2021/05/17 00:13:07;;;;;;;10.88;5.25;;;;;;;-145.50;100.00;65435.88;4997794;28;20053;-77
2021/05/17 00:15:34;;;;;;;9.00;5.68;;;;;;;-145.50;100.00;65435.88;4988465;28;20126;-77
2021/05/17 00:18:01;;;;;;;10.48;5.20;;;;;;;-145.50;100.00;65435.88;5000502;28;20556;-77
2021/05/17 00:20:27;;;;;;;7.95;4.88;;;;;;;-145.50;100.00;65435.88;4991053;28;20119;-77
2021/05/17 00:22:55;;;;;;;10.45;5.85;;;;;;;-145.50;100.00;65435.88;4999599;28;20054;-77
2021/05/17 00:25:23;;;;;;;11.15;6.45;;;;;;;-145.50;100.00;65435.88;4998062;28;20136;-77
2021/05/17 00:27:51;;;;;;;11.52;6.13;;;;;;;-145.50;100.00;65435.88;4992351;28;20100;-77
2021/05/17 00:30:19;;;;;;;;;;;;;;;-145.50;100.00;65435.88;5000062;28;20107;-77
2021/05/17 00:32:46;;;;;;;11.27;6.18;;;;;;;-145.50;100.00;65435.88;4996743;28;19949;-77
2021/05/17 00:35:14;;;;;;;10.15;5.75;;;;;;;-145.50;100.00;65435.88;5009660;28;20062;-77
2021/05/17 00:37:41;;;;;;;12.83;6.70;;;;;;;-145.50;100.00;65435.88;4998907;28;20050;-77
2021/05/17 00:40:11;;;;;;;9.60;5.57;;;;;;;-145.50;100.00;65435.88;5000997;28;20311;-77
2021/05/17 00:42:37;;;;;;;10.77;6.22;;;;;;;-145.50;100.00;65435.88;5000783;28;20173;-77
2021/05/17 00:45:08;;;;;;;8.80;6.30;;;;;;;-145.50;100.00;65435.88;4992469;28;20054;-77
2021/05/17 00:47:43;;;;;;;9.63;5.90;;;;;;;-145.50;100.00;65435.88;5004150;28;20103;-78
2021/05/17 00:50:15;;;;;;;9.80;5.90;;;;;;;-145.50;100.00;65435.88;5000476;28;20535;-77
2021/05/17 00:52:45;;;;;;;7.63;5.50;;;;;;;-145.50;100.00;65435.88;4999026;28;20516;-77
2021/05/17 00:55:13;;;;;;;11.27;6.25;;;;;;;-145.50;100.00;65435.88;4991153;28;20369;-77
2021/05/17 00:57:39;;;;;;;8.88;6.05;;;;;;;-145.50;100.00;65435.88;4996430;28;20477;-77
2021/05/17 01:00:22;;;;;;;11.15;7.18;;;;;;;-145.50;100.00;65435.88;4995686;28;20050;-76
2021/05/17 01:02:49;;;;;;;9.07;6.20;;;;;;;-145.50;100.00;65435.88;5001376;28;20120;-77
2021/05/17 01:05:15;;;;;;;9.40;6.22;;;;;;;-145.50;100.00;65435.88;5002281;28;20085;-77
2021/05/17 01:07:47;;;;;;;9.65;6.53;;;;;;;-145.50;100.00;65435.88;4991165;28;20050;-78
2021/05/17 01:10:18;;;;;;;9.85;6.75;;;;;;;-145.50;100.00;65435.88;4995199;28;20082;-77
2021/05/17 01:12:46;;;;;;;10.13;7.07;;;;;;;-145.50;100.00;65435.88;4991334;28;20498;-77
2021/05/17 01:15:15;;;;;;;9.90;6.37;;;;;;;-145.50;100.00;65435.88;5000976;28;20057;-77
2021/05/17 01:17:42;;;;;;;;;;;;;;;-145.50;100.00;65435.88;4993947;28;20322;-77
2021/05/17 01:20:12;;;;;;;9.68;5.82;;;;;;;-145.50;100.00;65435.88;5002852;28;20203;-77
2021/05/17 01:22:54;;;;;;;12.93;6.22;;;;;;;-145.50;100.00;65435.88;4998578;28;20111;-77
2021/05/17 01:25:23;;;;;;;10.18;5.72;;;;;;;-145.50;100.00;65435.88;4984452;28;20425;-77
2021/05/17 01:28:19;;;;;;;8.23;6.55;;;;;;;-145.50;100.00;65435.88;5004137;28;20494;-77
2021/05/17 01:31:05;;;;;;;10.13;6.25;;;;;;;-145.50;100.00;65435.88;5000833;28;20119;-78
2021/05/17 01:33:54;;;;;;;8.07;5.20;;;;;;;-145.50;100.00;65435.88;5000403;28;20054;-78
2021/05/17 01:36:42;;;;;;;7.55;4.95;;;;;;;-145.50;100.00;65435.88;4991375;28;20525;-77
2021/05/17 01:39:31;;;;;;;8.93;4.82;;;;;;;-145.50;100.00;65435.88;4992039;28;20076;-76
2021/05/17 01:42:20;;;;;;;;;;;;;;;-145.50;100.00;65435.88;4995734;28;20127;-77
2021/05/17 01:45:09;;;;;;;9.60;4.60;;;;;;;-145.50;100.00;65435.88;5000743;28;19926;-76
2021/05/17 01:47:58;;;;;;;8.35;5.35;;;;;;;-145.50;100.00;65435.88;4999553;28;20050;-77
2021/05/17 01:50:44;;;;;;;8.15;5.28;;;;;;;-145.50;100.00;65435.88;4997772;28;20050;-77
2021/05/17 01:53:33;;;;;;;7.93;5.20;;;;;;;-145.50;100.00;65435.88;4992293;28;20078;-76
2021/05/17 01:56:20;;;;;;;9.45;6.00;;;;;;;-145.50;100.00;65435.88;5002285;28;20050;-77
2021/05/17 01:59:08;;;;;;;11.57;6.00;;;;;;;-145.50;100.00;65435.88;4999581;28;20054;-79
2021/05/17 02:01:55;;;;;;;13.35;6.43;;;;;;;-145.50;100.00;65435.88;5000831;28;20399;-77
2021/05/17 02:04:44;;;;;;;8.52;5.80;;;;;;;-145.50;100.00;65435.88;4997302;28;20050;-77
2021/05/17 02:07:31;;;;;;;7.93;5.43;;;;;;;-145.50;100.00;65435.88;5000106;28;20145;-77
2021/05/17 02:10:20;;;;;;;8.10;5.68;;;;;;;-145.50;100.00;65435.88;4996461;28;20054;-77
2021/05/17 02:13:13;;;;;;;9.23;5.82;;;;;;;-145.50;100.00;65435.88;5004880;28;20058;-77
2021/05/17 02:16:03;;;;;;;10.65;5.85;;;;;;;-145.50;100.00;65435.88;4993515;28;20552;-77
2021/05/17 02:18:51;;;;;;;8.68;5.68;;;;;;;-145.50;100.00;65435.88;5006523;28;20046;-77
2021/05/17 02:21:38;;;;;;;9.88;5.72;;;;;;;-145.50;100.00;65435.88;4985832;28;20068;-77
2021/05/17 02:24:29;;;;;;;8.52;4.80;;;;;;;-145.50;100.00;65435.88;4994363;28;20164;-77
2021/05/17 02:27:17;;;;;;;8.38;5.13;;;;;;;-145.50;100.00;65435.88;4996960;28;20147;-77
2021/05/17 02:30:05;;;;;;;10.68;5.53;;;;;;;-145.50;100.00;65435.88;4993956;28;20112;-77
2021/05/17 02:32:53;;;;;;;9.80;5.45;;;;;;;-145.50;100.00;65435.88;4996487;28;20050;-77
2021/05/17 02:35:41;;;;;;;8.27;5.30;;;;;;;-145.50;100.00;65435.88;4991976;28;20441;-77
2021/05/17 02:38:32;;;;;;;6.70;4.80;;;;;;;-145.50;100.00;65435.88;4994358;28;20100;-77
2021/05/17 02:41:21;;;;;;;9.20;5.45;;;;;;;-145.50;100.00;65435.88;4996783;28;20399;-76
2021/05/17 02:44:09;;;;;;;10.98;5.53;;;;;;;-145.50;100.00;65435.88;4990487;28;23459;-77
2021/05/17 02:46:57;;;;;;;7.68;4.93;;;;;;;-145.50;100.00;65435.88;4999380;28;20762;-77
2021/05/17 02:49:45;;;;;;;9.82;5.85;;;;;;;-145.50;100.00;65435.88;4981306;28;20050;-77
2021/05/17 02:52:33;;;;;;;12.38;5.63;;;;;;;-145.50;100.00;65435.88;4999680;28;20493;-76
2021/05/17 02:55:30;;;;;;;9.02;4.95;;;;;;;-145.50;100.00;65435.88;4997315;28;20108;-79
2021/05/17 02:58:24;;;;;;;12.45;5.82;;;;;;;-145.50;100.00;65435.88;5002814;28;20069;-76
2021/05/17 03:01:14;;;;;;;9.65;5.55;;;;;;;-145.50;100.00;65435.88;4985521;28;20524;-77
2021/05/17 03:04:12;;;;;;;10.02;5.95;;;;;;;-145.50;100.00;65435.88;4993233;28;20563;-77
2021/05/17 03:07:09;;;;;;;9.45;4.78;;;;;;;-145.50;100.00;65435.88;4987766;28;20505;-77
2021/05/17 03:09:57;;;;;;;12.00;5.55;;;;;;;-145.50;100.00;65435.88;5003609;28;20049;-77
2021/05/17 03:12:45;;;;;;;;;;;;;;;-145.50;100.00;65435.88;4999146;28;20081;-78
2021/05/17 03:15:33;;;;;;;11.85;5.18;;;;;;;-145.50;100.00;65435.88;4996453;28;19980;-77
2021/05/17 03:18:22;;;;;;;11.77;5.88;;;;;;;-145.50;100.00;65435.88;5003594;28;20080;-77
2021/05/17 03:21:09;;;;;;;;;;;;;;;-145.50;100.00;65435.88;5000824;28;20088;-77
2021/05/17 03:23:58;;;;;;;11.13;5.43;;;;;;;-145.50;100.00;65435.88;5000388;28;19932;-76
2021/05/17 03:26:47;;;;;;;7.80;5.13;;;;;;;-145.50;100.00;65435.88;5001999;28;20053;-76
2021/05/17 03:29:34;;;;;;;9.10;5.30;;;;;;;-145.50;100.00;65435.88;4993524;28;20085;-77
2021/05/17 03:32:22;;;;;;;9.20;5.18;;;;;;;-145.50;100.00;65435.88;4990294;28;20476;-77
2021/05/17 03:35:10;;;;;;;;;;;;;;;-145.50;100.00;65435.88;4994326;28;20375;-77
2021/05/17 03:37:57;;;;;;;9.73;5.97;;;;;;;-145.50;100.00;65435.88;5013576;28;20341;-77
2021/05/17 03:40:44;;;;;;;12.17;5.97;;;;;;;-145.50;100.00;65435.88;4996008;28;20104;-77
2021/05/17 03:43:31;;;;;;;11.82;5.13;;;;;;;-145.50;100.00;65435.88;4982913;28;20342;-77
2021/05/17 03:46:18;;;;;;;10.35;5.75;;;;;;;-145.50;100.00;65435.88;4994145;28;20487;-77
2021/05/17 03:49:05;;;;;;;9.07;5.28;;;;;;;-145.50;100.00;65435.88;4989091;28;20108;-77
2021/05/17 03:51:52;;;;;;;10.05;5.65;;;;;;;-145.50;100.00;65435.88;4996920;28;20058;-76
2021/05/17 03:54:39;;;;;;;9.68;5.60;;;;;;;-145.50;100.00;65435.88;4990788;28;20474;-77
2021/05/17 03:57:27;;;;;;;10.68;5.45;;;;;;;-145.50;100.00;65435.88;4994649;28;20104;-77
2021/05/17 04:00:14;;;;;;;12.00;5.65;;;;;;;-145.50;100.00;65435.88;4985422;28;20506;-77
2021/05/17 04:03:05;;;;;;;13.00;5.90;;;;;;;-145.50;100.00;65435.88;4995960;28;20138;-77
2021/05/17 04:06:08;;;;;;;10.70;6.07;;;;;;;-145.50;100.00;65435.88;4996836;28;21159;-78
2021/05/17 04:15:07;;;;;;;11.32;5.55;;;;;;;-145.50;100.00;65435.88;5006717;28;20057;-78
2021/05/17 04:17:54;;;;;;;9.83;5.90;;;;;;;-145.50;100.00;65435.88;5005748;28;20046;-78
2021/05/17 04:20:41;;;;;;;11.82;6.28;;;;;;;-145.50;100.00;65435.88;5001149;28;20073;-78
2021/05/17 04:23:29;;;;;;;11.73;5.65;;;;;;;-145.50;100.00;65435.88;4990896;28;20054;-78
2021/05/17 04:26:16;;;;;;;12.35;5.97;;;;;;;-145.50;100.00;65435.88;5007106;28;20050;-78
2021/05/17 04:29:03;;;;;;;10.52;6.07;;;;;;;-145.50;100.00;65435.88;4996345;28;20052;-78
2021/05/17 04:31:52;;;;;;;10.82;6.32;;;;;;;-145.50;100.00;65435.88;5012233;28;20077;-78
2021/05/17 04:34:40;;;;;;;10.70;5.65;;;;;;;-145.50;100.00;65435.88;4995124;28;20073;-78
2021/05/17 04:37:27;;;;;;;11.90;6.43;;;;;;;-145.50;100.00;65435.88;5010167;28;20054;-78
2021/05/17 04:40:14;;;;;;;11.07;5.45;;;;;;;-145.50;100.00;65435.88;5000629;28;20464;-77
2021/05/17 04:43:02;;;;;;;16.42;5.93;;;;;;;-145.50;100.00;65435.88;5002620;28;20057;-77
2021/05/17 04:45:49;;;;;;;8.30;5.60;;;;;;;-145.50;100.00;65435.88;5004918;28;20116;-77
2021/05/17 04:48:48;;;;;;;8.65;4.82;;;;;;;-145.50;100.00;65435.88;5001131;28;20050;-77
2021/05/17 04:51:37;;;;;;;9.80;5.75;;;;;;;-145.50;100.00;65435.88;4998251;28;20141;-77
2021/05/17 04:54:24;;;;;;;13.73;5.65;;;;;;;-145.50;100.00;65435.88;5002235;28;20073;-77
2021/05/17 04:57:12;;;;;;;10.67;5.60;;;;;;;-145.50;100.00;65435.88;4990507;28;20088;-77
2021/05/17 05:00:19;;;;;;;8.68;5.00;;;;;;;-145.50;100.00;65435.88;5002091;28;20145;-77
2021/05/17 05:03:06;;;;;;;9.55;5.20;;;;;;;-145.50;100.00;65435.88;5001019;28;20053;-77
2021/05/17 05:05:53;;;;;;;10.75;5.30;;;;;;;-145.50;100.00;65435.88;5009448;28;20104;-77
2021/05/17 05:08:40;;;;;;;7.35;5.00;;;;;;;-145.50;100.00;65435.88;4992638;28;20057;-77
2021/05/17 05:11:27;;;;;;;9.35;4.57;;;;;;;-145.50;100.00;65435.88;5009603;28;20049;-77
2021/05/17 05:14:14;;;;;;;10.45;4.68;;;;;;;-145.50;100.00;65435.88;4996015;28;20087;-78
2021/05/17 05:17:02;;;;;;;8.32;4.60;;;;;;;-145.50;100.00;65435.88;5011158;28;20096;-78
2021/05/17 05:19:50;;;;;;;8.75;4.40;;;;;;;-145.50;100.00;65435.88;4996189;28;20054;-77
2021/05/17 05:22:37;;;;;;;7.28;4.03;;;;;;;-145.50;100.00;65435.88;4993847;28;20054;-77
2021/05/17 05:25:29;;;;;;;11.68;5.00;;;;;;;-145.50;100.00;65435.88;5000769;28;20069;-77
2021/05/17 05:28:19;;;;;;;8.52;4.07;;;;;;;-145.50;100.00;65435.88;5003322;28;20053;-77
2021/05/17 05:31:23;;;;;;;6.57;3.80;;;;;;;-145.50;100.00;65435.88;4997391;28;20059;-78
2021/05/17 05:34:11;;;;;;;10.18;4.38;;;;;;;-145.50;100.00;65435.88;5002354;28;20136;-78
2021/05/17 05:36:59;;;;;;;9.85;4.43;;;;;;;-145.50;100.00;65435.88;4989947;28;20045;-77
2021/05/17 05:39:47;;;;;;;10.45;4.97;;;;;;;-145.50;100.00;65435.88;4999674;28;20110;-77
2021/05/17 05:42:34;;;;;;;6.32;4.18;;;;;;;-145.50;100.00;65435.88;4984645;28;20084;-77
2021/05/17 05:45:21;;;;;;;8.48;4.68;;;;;;;-145.50;100.00;65435.88;5001719;28;20148;-77
2021/05/17 05:48:08;;;;;;;10.25;4.47;;;;;;;-145.50;100.00;65435.88;4997604;28;20053;-77
2021/05/17 05:50:55;;;;;;;8.18;4.80;;;;;;;-145.50;100.00;65435.88;5007313;28;20056;-78
2021/05/17 05:53:43;;;;;;;6.72;4.35;;;;;;;-145.50;100.00;65435.88;4994734;28;20058;-77
2021/05/17 05:56:31;;;;;;;9.23;4.70;;;;;;;-145.50;100.00;65435.88;5019030;28;20112;-77
2021/05/17 05:59:18;;;;;;;8.45;5.10;;;;;;;-145.50;100.00;65435.88;5003559;28;20052;-78
2021/05/17 06:02:05;;;;;;;10.57;4.25;;;;;;;-145.50;100.00;65435.88;5005976;28;20583;-77
2021/05/17 06:04:52;;;;;;;7.65;4.40;;;;;;;-145.50;100.00;65435.88;5001866;28;20515;-77
2021/05/17 06:07:39;;;;;;;8.45;4.38;;;;;;;-145.50;100.00;65435.88;4996184;28;20069;-77
2021/05/17 06:10:28;;;;;;;8.65;4.18;;;;;;;-145.50;100.00;65435.88;4998678;28;20057;-77
2021/05/17 06:13:16;;;;;;;9.27;4.35;;;;;;;-145.50;100.00;65435.88;4995303;28;20057;-77
2021/05/17 06:16:04;;;;;;;8.85;4.97;;;;;;;-145.50;100.00;65435.88;5006317;28;20062;-78
2021/05/17 06:18:54;;;;;;;10.07;5.00;;;;;;;-145.50;100.00;65435.88;4997214;28;20050;-78
2021/05/17 06:21:42;;;;;;;12.20;5.20;;;;;;;-145.50;100.00;65435.88;4999617;28;20096;-78
2021/05/17 06:24:30;;;;;;;13.05;5.50;;;;;;;-145.50;100.00;65435.88;4991747;28;20078;-76
2021/05/17 06:27:17;;;;;;;11.07;5.13;;;;;;;-145.50;100.00;65435.88;4999422;28;20054;-77
2021/05/17 06:30:06;;;;;;;10.93;5.00;;;;;;;-145.50;100.00;65435.88;4993602;28;20110;-78
2021/05/17 06:32:55;;;;;;;11.20;4.47;;;;;;;-145.50;100.00;65435.88;5000545;28;20089;-77
2021/05/17 06:35:45;;;;;;;11.30;5.22;;;;;;;-145.50;100.00;65435.88;4991648;28;20103;-77
2021/05/17 06:38:33;;;;;;;9.98;5.35;;;;;;;-145.50;100.00;65435.88;4996765;28;20081;-78
2021/05/17 06:41:20;;;;;;;8.52;5.43;;;;;;;-145.50;100.00;65435.88;4994922;28;20076;-77
2021/05/17 06:44:07;;;;;;;11.95;5.15;;;;;;;-145.50;100.00;65435.88;4993705;28;20088;-77
2021/05/17 06:46:56;;;;;;;13.63;5.17;;;;;;;-145.50;100.00;65435.88;4998130;28;20058;-76
2021/05/17 06:49:46;;;;;;;10.57;5.22;;;;;;;-145.50;100.00;65435.88;4991924;28;20073;-76
2021/05/17 06:52:33;;;;;;;9.40;4.63;;;;;;;-145.50;100.00;65435.88;4983145;28;20061;-77
2021/05/17 06:55:23;;;;;;;11.87;5.50;;;;;;;-145.50;100.00;65435.88;4999910;28;20050;-76
2021/05/17 06:58:15;;;;;;;8.73;5.40;;;;;;;-145.50;100.00;65435.88;4990107;28;20303;-76
2021/05/17 07:01:03;;;;;;;13.15;4.97;;;;;;;-145.50;100.00;65435.88;4995434;28;20050;-76
2021/05/17 07:03:50;;;;;;;10.02;4.68;;;;;;;-145.50;100.00;65435.88;4985161;28;20092;-75
2021/05/17 07:06:40;;;;;;;11.25;4.88;;;;;;;-145.50;100.00;65435.88;4993733;28;20054;-75
2021/05/17 07:12:33;;;;;;;12.02;5.35;;;;;;;-145.50;100.00;65435.88;4998327;28;20609;-76
2021/05/17 07:15:20;;;;;;;7.97;4.47;;;;;;;-145.50;100.00;65435.88;4992436;28;20085;-76
2021/05/17 07:18:08;;;;;;;12.50;3.95;;;;;;;-145.50;100.00;65435.88;4984134;28;20414;-76
2021/05/17 07:23:42;;;;;;;9.48;4.57;;;;;;;-145.50;100.00;65435.88;4997292;28;20128;-76
2021/05/17 07:26:27;;;;;;;11.07;4.43;;;;;;;-145.50;100.00;65435.88;4994756;28;20132;-75
2021/05/17 07:29:14;;;;;;;10.20;3.78;;;;;;;-145.50;100.00;65435.88;4994590;28;20532;-76
2021/05/17 07:31:46;;;;;;;11.80;3.83;;;;;;;-145.50;100.00;65435.88;4986418;28;20152;-76
2021/05/17 07:34:35;;;;;;;9.40;4.35;;;;;;;-145.50;100.00;65435.88;4995632;28;20049;-76
2021/05/17 07:37:24;;;;;;;10.48;4.20;;;;;;;-145.50;100.00;65435.88;4998411;28;20416;-76
2021/05/17 07:40:14;;;;;;;10.65;4.10;;;;;;;-145.50;100.00;65435.88;5004542;28;20068;-76
2021/05/17 07:43:01;;;;;;;10.80;3.78;;;;;;;-145.50;100.00;65435.88;4988936;28;20474;-76
2021/05/17 07:45:57;;;;;;;10.23;3.20;;;;;;;-145.50;100.00;65435.88;5001225;28;20065;-76
2021/05/17 07:51:26;;;;;;;7.65;3.55;;;;;;;-145.50;100.00;65435.88;5000546;28;20057;-76
2021/05/17 07:53:53;;;;;;;11.20;3.55;;;;;;;-145.50;100.00;65435.88;4999490;28;20069;-76
2021/05/17 07:56:20;;;;;;;9.10;4.03;;;;;;;-145.50;100.00;65435.88;5007180;28;20046;-76
2021/05/17 07:58:46;;;;;;;10.55;4.20;;;;;;;-145.50;100.00;65435.88;4997199;28;20114;-76
2021/05/17 08:01:13;;;;;;;15.43;3.63;;;;;;;-145.50;100.00;65435.88;4995869;28;20085;-76
2021/05/17 08:03:39;;;;;;;10.43;3.58;;;;;;;-145.50;100.00;65435.88;4996597;28;20490;-76
2021/05/17 08:06:07;;;;;;;11.52;3.78;;;;;;;-145.50;100.00;65435.88;5002089;28;20050;-76
2021/05/17 08:08:34;;;;;;;8.20;3.42;;;;;;;-145.50;100.00;65435.88;4997827;28;20072;-76
2021/05/17 08:11:02;;;;;;;9.38;3.17;;;;;;;-145.50;100.00;65435.88;4998764;28;20108;-76
2021/05/17 08:13:29;;;;;;;9.05;3.65;;;;;;;-145.50;100.00;65435.88;4993273;28;20054;-76
2021/05/17 08:16:15;;;;;;;9.43;3.20;;;;;;;-145.50;100.00;65435.88;4991387;28;20057;-76
2021/05/17 08:18:43;;;;;;;5.82;2.97;;;;;;;-145.50;100.00;65435.88;4998281;28;20195;-76
2021/05/17 08:21:10;;;;;;;8.55;3.53;;;;;;;-145.50;100.00;65435.88;4995606;28;20069;-76
2021/05/17 08:23:37;;;;;;;7.05;3.55;;;;;;;-145.50;100.00;65435.88;4990970;28;20060;-75
2021/05/17 08:26:07;;;;;;;7.95;3.55;;;;;;;-145.50;100.00;65435.88;5000860;28;20054;-76
2021/05/17 08:28:35;;;;;;;6.57;3.53;;;;;;;-145.50;100.00;65435.88;4987868;28;20057;-76
2021/05/17 08:31:03;;;;;;;7.20;3.00;;;;;;;-145.50;100.00;65435.88;5021093;28;20046;-76
2021/05/17 08:33:30;;;;;;;7.80;3.00;;;;;;;-145.50;100.00;65435.88;4995623;28;20054;-75
2021/05/17 08:35:57;;;;;;;6.78;2.92;;;;;;;-145.50;100.00;65435.88;5001376;28;20051;-76
2021/05/17 08:38:24;;;;;;;7.32;3.33;;;;;;;-145.50;100.00;65435.88;4998218;28;20160;-75
2021/05/17 08:40:50;;;;;;;8.85;3.20;;;;;;;-145.50;100.00;65435.88;4986114;28;20053;-75
2021/05/17 08:43:17;;;;;;;5.05;2.13;;;;;;;-145.50;100.00;65435.88;4994869;28;20128;-76
2021/05/17 08:45:45;;;;;;;4.30;2.15;;;;;;;-145.50;100.00;65435.88;4991145;28;20058;-75
2021/05/17 08:48:12;;;;;;;5.37;2.00;;;;;;;-145.50;100.00;65435.88;4998959;28;20446;-75
2021/05/17 08:50:40;;;;;;;5.13;2.15;;;;;;;-145.50;100.00;65435.88;5004155;28;20489;-76
2021/05/17 08:53:10;;;;;;;7.85;2.72;;;;;;;-145.50;100.00;65435.88;4996599;28;20159;-76
2021/05/17 08:55:37;;;;;;;7.78;2.60;;;;;;;-145.50;100.00;65435.88;4992158;28;20131;-76
2021/05/17 08:58:04;;;;;;;7.43;3.00;;;;;;;-145.50;100.00;65435.88;4987486;28;20057;-76
2021/05/17 09:00:31;;;;;;;8.15;3.08;;;;;;;-145.50;100.00;65435.88;4995242;28;20439;-76
2021/05/17 09:02:58;;;;;;;8.15;3.20;;;;;;;-145.50;100.00;65435.88;4991942;28;20397;-76
2021/05/17 09:05:32;;;;;;;9.68;3.13;;;;;;;-145.50;100.00;65435.88;5001841;28;20050;-76
2021/05/17 09:08:02;;;;;;;7.72;2.92;;;;;;;-145.50;100.00;65435.88;4992119;28;20489;-76
2021/05/17 09:10:32;;;;;;;4.93;2.97;;;;;;;-145.50;100.00;65435.88;4990378;28;20046;-76
2021/05/17 09:13:09;;;;;;;6.50;3.20;;;;;;;-145.50;100.00;65435.88;4996259;28;20107;-76
2021/05/17 09:15:53;;;;;;;6.13;2.97;;;;;;;-145.50;100.00;65435.88;4994916;28;20217;-76
2021/05/17 09:18:24;;;;;;;6.63;3.42;;;;;;;-145.50;100.00;65435.88;4999037;28;20129;-76
2021/05/17 09:20:52;;;;;;;10.82;4.00;;;;;;;-145.50;100.00;65435.88;4989767;28;20112;-76
2021/05/17 09:23:20;;;;;;;6.85;3.00;;;;;;;-145.50;100.00;65435.88;4991754;28;20073;-76
2021/05/17 09:26:01;;;;;;;6.45;2.78;;;;;;;-145.50;100.00;65435.88;4981626;28;20058;-76
2021/05/17 09:28:31;;;;;;;8.07;3.30;;;;;;;-145.50;100.00;65435.88;4997527;28;20858;-76
2021/05/17 09:31:05;;;;;;;7.05;3.05;;;;;;;-145.50;100.00;65435.88;4994165;28;20107;-76
2021/05/17 09:33:53;;;;;;;11.68;3.92;;;;;;;-145.50;100.00;65435.88;4996079;28;20077;-76
2021/05/17 09:36:27;;;;;;;10.18;3.03;;;;;;;-145.50;100.00;65435.88;4998220;28;20050;-76
2021/05/17 09:38:59;;;;;;;8.13;2.88;;;;;;;-145.50;100.00;65435.88;4989440;28;20157;-76
2021/05/17 09:41:45;;;;;;;6.40;3.45;;;;;;;-145.50;100.00;65435.88;4990952;28;20564;-76
2021/05/17 09:44:22;;;;;;;6.65;2.72;;;;;;;-145.50;100.00;65435.88;4992178;28;20560;-76
2021/05/17 09:47:08;;;;;;;5.78;2.75;;;;;;;-145.50;100.00;65435.88;4998566;28;20452;-76
2021/05/17 09:49:37;;;;;;;6.68;2.83;;;;;;;-145.50;100.00;65435.88;4987307;28;20482;-76
2021/05/17 09:52:28;;;;;;;5.43;2.83;;;;;;;-145.50;100.00;65435.88;4991473;28;20131;-76
2021/05/17 09:55:07;;;;;;;8.70;3.10;;;;;;;-145.50;100.00;65435.88;4996100;28;20464;-76
2021/05/17 09:57:42;;;;;;;6.57;3.00;;;;;;;-145.50;100.00;65435.88;4996496;28;20428;-76
2021/05/17 10:00:17;;;;;;;4.35;2.70;;;;;;;-145.50;100.00;65435.88;4988668;28;20095;-76
2021/05/17 10:02:54;;;;;;;5.75;2.60;;;;;;;-145.50;100.00;65435.88;4994792;28;20156;-76
2021/05/17 10:05:23;;;;;;;10.68;2.90;;;;;;;-145.50;100.00;65435.88;4988910;28;20440;-76
2021/05/17 10:07:53;;;;;;;;;;;;;;;-145.50;100.00;65435.88;4993229;28;20069;-76
2021/05/17 10:10:41;;;;;;;5.60;2.75;;;;;;;-145.50;100.00;65435.88;4991936;28;20316;-76
2021/05/17 10:13:07;;;;;;;10.00;3.40;;;;;;;-145.50;100.00;65435.88;4989753;28;20593;-76
2021/05/17 10:15:35;;;;;;;5.43;2.95;;;;;;;-145.50;100.00;65435.88;4997232;28;20054;-76
2021/05/17 10:18:10;;;;;;;6.60;3.13;;;;;;;-145.50;100.00;65435.88;4992208;28;20145;-76
2021/05/17 10:20:36;;;;;;;9.93;3.00;;;;;;;-145.50;100.00;65435.88;4986094;28;20082;-75
2021/05/17 10:23:04;;;;;;;7.07;3.35;;;;;;;-145.50;100.00;65435.88;4989941;28;20050;-76
2021/05/17 10:25:33;;;;;;;6.50;3.05;;;;;;;-145.50;100.00;65435.88;4998325;28;20089;-75
2021/05/17 10:28:07;;;;;;;7.05;3.08;;;;;;;-145.50;100.00;65435.88;4997423;28;20108;-75
2021/05/17 10:30:35;;;;;;;3.75;2.50;;;;;;;-145.50;100.00;65435.88;4988175;28;20489;-75
2021/05/17 10:33:09;;;;;;;4.93;2.70;;;;;;;-145.50;100.00;65435.88;4994800;28;20478;-75
2021/05/17 10:35:41;;;;;;;6.25;3.00;;;;;;;-145.50;100.00;65435.88;4996911;28;20506;-75
2021/05/17 10:38:21;;;;;;;8.50;3.20;;;;;;;-145.50;100.00;65435.88;4998045;28;20118;-75
2021/05/17 10:40:54;;;;;;;6.13;2.92;;;;;;;-145.50;100.00;65435.88;4992381;28;20054;-76
2021/05/17 10:43:49;;;;;;;4.75;1.70;;;;;;;-145.50;100.00;65435.88;4991391;28;20434;-75
2021/05/17 10:46:39;;;;;;;3.35;1.80;;;;;;;-145.50;100.00;65435.88;4981325;28;20643;-77
2021/05/17 10:49:26;;;;;;;4.25;2.00;;;;;;;-145.50;100.00;65435.88;4997450;28;20134;-75
2021/05/17 10:52:06;;;;;;;2.50;1.90;;;;;;;-145.50;100.00;65435.88;4981161;28;20042;-76
2021/05/17 10:54:44;;;;;;;5.22;2.00;;;;;;;-145.50;100.00;65435.88;4999758;28;20046;-76
2021/05/17 10:57:30;;;;;;;4.55;2.33;;;;;;;-145.50;100.00;65435.88;4982568;28;20109;-76
2021/05/17 11:02:44;;;;;;;6.30;2.75;;;;;;;-145.50;100.00;65435.88;4992157;28;20060;-76
2021/05/17 11:05:21;;;;;;;5.53;2.40;;;;;;;-145.50;100.00;65435.88;4994590;28;20062;-75
2021/05/17 11:07:51;;;;;;;6.27;3.13;;;;;;;-145.50;100.00;65435.88;4997565;28;20053;-76
2021/05/17 11:10:17;;;;;;;5.22;2.67;;;;;;;-145.50;100.00;65435.88;4995147;28;20078;-76
2021/05/17 11:12:44;;;;;;;7.50;3.50;;;;;;;-145.50;100.00;65435.88;4988013;28;20054;-76
2021/05/17 11:15:56;;;;;;;6.00;3.45;;;;;;;-145.50;100.00;65435.88;4981475;28;20474;-76
2021/05/17 11:18:32;;;;;;;6.45;3.20;;;;;;;-145.50;100.00;65435.88;5002971;28;20056;-77
2021/05/17 11:21:04;;;;;;;5.38;3.35;;;;;;;-145.50;100.00;65435.88;4988966;28;20050;-77
2021/05/17 11:23:31;;;;;;;6.25;3.47;;;;;;;-145.50;100.00;65435.88;5002099;28;20052;-76
2021/05/17 11:28:35;;;;;;;;;;;;;;;-145.50;100.00;65435.88;4996917;28;20096;-76
2021/05/17 11:31:44;;;;;;;6.63;3.15;;;;;;;-145.50;100.00;65435.88;4997032;28;19925;-76
2021/05/17 11:34:17;;;;;;;5.93;3.10;;;;;;;-145.50;100.00;65435.88;5001296;28;20049;-76
2021/05/17 11:36:47;;;;;;;4.15;3.33;;;;;;;-145.50;100.00;65435.88;4995963;28;20050;-76
2021/05/17 11:39:19;;;;;;;6.38;3.78;;;;;;;-145.50;100.00;65435.88;4989084;28;20097;-76
2021/05/17 11:41:58;;;;;;;5.50;3.35;;;;;;;-145.50;100.00;65435.88;4991379;28;20462;-76
2021/05/17 11:44:32;;;;;;;3.97;2.58;;;;;;;-145.50;100.00;65435.88;4989216;28;20066;-76
2021/05/17 11:47:08;;;;;;;3.25;1.45;;;;;;;-145.50;100.00;65435.88;4995706;28;20116;-76
2021/05/17 11:49:41;;;;;;;1.58;0.70;;;;;;;-145.50;100.00;65435.88;5012160;28;20061;-75
2021/05/17 11:52:10;;;;;;;0.63;0.50;;;;;;;-145.50;100.00;65435.88;4995269;28;20086;-75
2021/05/17 11:54:51;;;;;;;0.50;0.50;;;;;;;-145.50;100.00;65435.88;4990293;28;20606;-75
2021/05/17 11:57:28;;;;;;;0.85;0.70;;;;;;;-145.50;100.00;65435.88;4996021;28;20131;-77
2021/05/17 12:00:01;;;;;;;2.40;0.93;;;;;;;-145.50;100.00;65435.88;4994423;28;20085;-76
2021/05/17 12:02:28;;;;;;;3.05;1.60;;;;;;;-145.50;100.00;65435.88;4990064;28;20645;-75
2021/05/17 12:04:55;;;;;;;3.92;2.00;;;;;;;-145.50;100.00;65435.88;4994221;28;20606;-76
2021/05/17 12:07:21;;;;;;;3.05;2.05;;;;;;;-145.50;100.00;65435.88;5004015;28;20361;-75
2021/05/17 12:09:50;;;;;;;5.78;2.92;;;;;;;-145.50;100.00;65435.88;4989116;28;20109;-76
2021/05/17 12:12:19;;;;;;;6.72;3.03;;;;;;;-145.50;100.00;65435.88;4985464;28;20057;-75
2021/05/17 12:14:50;;;;;;;5.88;3.22;;;;;;;-145.50;100.00;65435.88;4998153;28;20776;-75
2021/05/17 12:17:27;;;;;;;5.95;3.13;;;;;;;-145.50;100.00;65435.88;5000718;28;20405;-75
2021/05/17 12:19:56;;;;;;;8.27;3.67;;;;;;;-145.50;100.00;65435.88;4994237;28;20046;-76
2021/05/17 12:22:27;;;;;;;6.05;4.57;;;;;;;-145.50;100.00;65435.88;4997470;28;20062;-75
2021/05/17 12:24:58;;;;;;;7.07;4.72;;;;;;;-145.50;100.00;65435.88;4992616;28;20096;-75
2021/05/17 12:27:25;;;;;;;7.30;4.72;;;;;;;-145.50;100.00;65435.88;5002011;28;20046;-75